createdAt,value
2022-09-03T00:02:15.025Z,0.80
2022-09-03T00:04:57.373Z,0.70
2022-09-03T00:07:47.126Z,0.70
2022-09-03T00:10:28.409Z,0.97
2022-09-03T00:13:01.754Z,0.80
2022-09-03T00:15:32.672Z,1.07
2022-09-03T00:18:22.893Z,0.90
2022-09-03T00:20:55.377Z,1.00
2022-09-03T00:23:24.521Z,0.70
2022-09-03T00:26:11.449Z,0.67
2022-09-03T00:28:47.685Z,0.97
2022-09-03T00:31:39.777Z,1.10
2022-09-03T00:34:29.080Z,1.00
2022-09-03T00:36:56.161Z,0.70
2022-09-03T00:39:27.219Z,0.60
2022-09-03T00:42:20.160Z,0.93
2022-09-03T00:45:28.516Z,1.00
2022-09-03T00:48:00.881Z,1.13
2022-09-03T00:50:46.915Z,0.90
2022-09-03T00:53:59.272Z,0.90
2022-09-03T00:56:43.966Z,0.80
2022-09-03T00:59:39.120Z,0.83
2022-09-03T01:02:06.195Z,0.80
2022-09-03T01:05:07.744Z,1.10
2022-09-03T01:08:04.216Z,0.80
2022-09-03T01:10:48.957Z,1.00
2022-09-03T01:13:24.302Z,0.80
2022-09-03T01:16:00.249Z,0.70
2022-09-03T01:19:08.975Z,1.00
2022-09-03T01:21:36.588Z,0.90
2022-09-03T01:24:29.861Z,0.90
2022-09-03T01:27:17.487Z,0.90
2022-09-03T01:30:25.078Z,0.90
2022-09-03T01:32:54.626Z,1.03
2022-09-03T01:35:44.157Z,1.23
2022-09-03T01:38:29.850Z,1.10
2022-09-03T01:41:38.199Z,1.20
2022-09-03T01:44:44.062Z,1.30
2022-09-03T01:47:41.554Z,1.00
2022-09-03T01:50:23.372Z,1.00
2022-09-03T01:53:25.283Z,1.40
2022-09-03T01:56:01.239Z,0.80
2022-09-03T01:58:37.564Z,0.90
2022-09-03T02:01:21.012Z,1.00
2022-09-03T02:03:50.812Z,0.97
2022-09-03T02:06:20.889Z,0.93
2022-09-03T02:08:47.796Z,0.87
2022-09-03T02:11:14.747Z,1.20
2022-09-03T02:13:48.620Z,0.90
2022-09-03T02:16:25.207Z,1.00
2022-09-03T02:18:58.968Z,1.03
2022-09-03T02:21:32.614Z,1.00
2022-09-03T02:24:00.232Z,1.10
2022-09-03T02:26:27.042Z,1.00
2022-09-03T02:28:55.874Z,0.90
2022-09-03T02:31:23.111Z,0.90
2022-09-03T02:33:50.955Z,0.93
2022-09-03T02:36:21.587Z,0.80
2022-09-03T02:38:52.421Z,0.80
2022-09-03T02:41:19.273Z,0.90
2022-09-03T02:44:10.084Z,0.97
2022-09-03T02:46:48.496Z,0.90
2022-09-03T02:49:15.478Z,0.97
2022-09-03T02:51:44.285Z,1.10
2022-09-03T02:54:12.458Z,0.90
2022-09-03T02:56:39.778Z,1.00
2022-09-03T02:59:08.670Z,1.10
2022-09-03T03:01:37.895Z,0.70
2022-09-03T03:04:05.017Z,1.23
2022-09-03T03:06:33.278Z,1.10
2022-09-03T03:09:01.659Z,0.90
2022-09-03T03:11:29.109Z,1.07
2022-09-03T03:13:55.973Z,1.13
2022-09-03T03:16:23.078Z,1.20
2022-09-03T03:18:50.819Z,1.47
2022-09-03T03:21:19.137Z,1.80
2022-09-03T03:23:45.965Z,1.03
2022-09-03T03:26:17.762Z,1.30
2022-09-03T03:28:46.845Z,1.17
2022-09-03T03:31:19.738Z,1.10
2022-09-03T03:33:54.557Z,1.00
2022-09-03T03:36:23.989Z,1.30
2022-09-03T03:38:55.221Z,1.03
2022-09-03T03:41:31.473Z,0.80
2022-09-03T03:44:01.030Z,1.00
2022-09-03T03:46:38.811Z,0.93
2022-09-03T03:49:07.228Z,0.80
2022-09-03T03:51:35.361Z,1.00
2022-09-03T03:54:05.256Z,1.03
2022-09-03T03:56:33.063Z,1.07
2022-09-03T03:59:00.242Z,0.90
2022-09-03T04:01:28.683Z,1.30
2022-09-03T04:03:56.668Z,0.70
2022-09-03T04:06:23.936Z,1.00
2022-09-03T04:08:51.150Z,1.00
2022-09-03T04:11:21.625Z,0.80
2022-09-03T04:13:49.988Z,0.90
2022-09-03T04:16:19.312Z,0.90
2022-09-03T04:18:49.315Z,1.07
2022-09-03T04:21:21.897Z,1.20
2022-09-03T04:23:50.663Z,1.00
2022-09-03T04:26:22.726Z,0.80
2022-09-03T04:28:50.045Z,0.90
2022-09-03T04:31:18.884Z,1.10
2022-09-03T04:33:48.006Z,1.00
2022-09-03T04:36:20.555Z,1.00
2022-09-03T04:38:50.192Z,1.07
2022-09-03T04:41:43.534Z,1.07
2022-09-03T04:44:10.337Z,1.10
2022-09-03T04:46:37.124Z,0.90
2022-09-03T04:49:03.919Z,0.80
2022-09-03T04:51:31.780Z,1.00
2022-09-03T04:54:02.247Z,0.90
2022-09-03T04:56:34.812Z,1.10
2022-09-03T04:59:07.190Z,0.87
2022-09-03T05:01:35.783Z,0.70
2022-09-03T05:04:04.768Z,1.10
2022-09-03T05:06:32.604Z,1.10
2022-09-03T05:09:00.019Z,0.83
2022-09-03T05:11:28.996Z,1.10
2022-09-03T05:13:58.287Z,1.07
2022-09-03T05:16:28.324Z,1.10
2022-09-03T05:18:56.960Z,1.10
2022-09-03T05:21:24.554Z,1.00
2022-09-03T05:23:52.926Z,1.00
2022-09-03T05:26:26.572Z,1.10
2022-09-03T05:28:56.115Z,1.20
2022-09-03T05:31:26.178Z,1.00
2022-09-03T05:33:57.678Z,1.40
2022-09-03T05:36:26.768Z,0.90
2022-09-03T05:38:58.720Z,1.57
2022-09-03T05:41:26.360Z,1.43
2022-09-03T05:43:56.662Z,1.07
2022-09-03T05:46:31.516Z,1.10
2022-09-03T05:48:59.969Z,1.20
2022-09-03T05:51:27.010Z,0.90
2022-09-03T05:53:55.485Z,1.13
2022-09-03T05:56:24.577Z,0.80
2022-09-03T05:58:53.882Z,1.10
2022-09-03T06:01:23.058Z,1.30
2022-09-03T06:04:03.159Z,1.27
2022-09-03T06:06:32.749Z,1.00
2022-09-03T06:09:02.614Z,1.00
2022-09-03T06:11:31.021Z,0.90
2022-09-03T06:14:00.259Z,1.20
2022-09-03T06:16:31.532Z,1.10
2022-09-03T06:18:59.624Z,1.00
2022-09-03T06:21:27.033Z,1.00
2022-09-03T06:23:56.979Z,1.00
2022-09-03T06:26:28.731Z,1.07
2022-09-03T06:28:57.024Z,1.10
2022-09-03T06:31:24.518Z,1.00
2022-09-03T06:33:53.690Z,1.00
2022-09-03T06:36:22.627Z,1.10
2022-09-03T06:38:52.755Z,1.20
2022-09-03T06:41:26.609Z,1.47
2022-09-03T06:44:05.391Z,1.23
2022-09-03T06:46:35.253Z,1.30
2022-09-03T06:49:02.510Z,1.33
2022-09-03T06:51:31.018Z,1.43
2022-09-03T06:54:03.484Z,1.30
2022-09-03T06:56:31.830Z,1.70
2022-09-03T06:59:05.363Z,1.37
2022-09-03T07:01:33.348Z,1.40
2022-09-03T07:04:03.454Z,1.83
2022-09-03T07:06:33.038Z,1.57
2022-09-03T07:09:00.214Z,1.30
2022-09-03T07:11:31.284Z,1.37
2022-09-03T07:13:59.440Z,1.50
2022-09-03T07:16:29.923Z,1.30
2022-09-03T07:18:57.186Z,1.30
2022-09-03T07:21:29.334Z,1.87
2022-09-03T07:23:57.588Z,1.43
2022-09-03T07:26:30.519Z,1.47
2022-09-03T07:28:57.947Z,1.83
2022-09-03T07:31:31.795Z,1.67
2022-09-03T07:34:06.133Z,1.60
2022-09-03T07:36:43.069Z,1.83
2022-09-03T07:39:11.822Z,1.73
2022-09-03T07:41:39.126Z,1.43
2022-09-03T07:44:08.221Z,1.50
2022-09-03T07:46:38.103Z,1.50
2022-09-03T07:49:06.293Z,1.90
2022-09-03T07:51:37.311Z,1.93
2022-09-03T07:54:07.512Z,1.67
2022-09-03T07:56:35.803Z,1.73
2022-09-03T07:59:03.967Z,1.60
2022-09-03T08:01:32.897Z,1.63
2022-09-03T08:04:01.039Z,1.63
2022-09-03T08:06:29.413Z,1.90
2022-09-03T08:09:04.171Z,2.03
2022-09-03T08:11:32.872Z,2.33
2022-09-03T08:14:02.770Z,2.70
2022-09-03T08:16:37.065Z,2.10
2022-09-03T08:19:06.095Z,2.13
2022-09-03T08:21:33.565Z,2.40
2022-09-03T08:24:02.900Z,2.30
2022-09-03T08:26:32.490Z,2.63
2022-09-03T08:28:59.707Z,1.80
2022-09-03T08:31:28.134Z,1.90
2022-09-03T08:33:57.192Z,2.17
2022-09-03T08:36:32.948Z,2.47
2022-09-03T08:39:09.444Z,2.73
2022-09-03T08:41:45.491Z,2.10
2022-09-03T08:44:29.518Z,1.60
2022-09-03T08:47:30.289Z,1.93
2022-09-03T08:50:13.194Z,1.90
2022-09-03T08:53:03.894Z,1.70
2022-09-03T08:55:44.899Z,2.10
2022-09-03T08:58:20.353Z,1.70
2022-09-03T09:00:48.349Z,1.77
2022-09-03T09:03:47.954Z,1.80
2022-09-03T09:06:23.974Z,2.13
2022-09-03T09:08:56.473Z,1.87
2022-09-03T09:11:48.054Z,2.27
2022-09-03T09:14:29.483Z,1.73
2022-09-03T09:17:31.638Z,1.70
2022-09-03T09:20:22.987Z,2.03
2022-09-03T09:23:06.980Z,2.27
2022-09-03T09:25:41.736Z,2.13
2022-09-03T09:28:14.542Z,2.30
2022-09-03T09:30:42.840Z,2.60
2022-09-03T09:33:11.288Z,2.13
2022-09-03T09:35:41.848Z,2.07
2022-09-03T09:38:14.054Z,1.87
2022-09-03T09:40:45.651Z,2.33
2022-09-03T09:43:23.565Z,2.10
2022-09-03T09:45:53.388Z,1.83
2022-09-03T09:48:31.507Z,2.20
2022-09-03T09:51:11.644Z,1.80
2022-09-03T09:53:45.071Z,1.90
2022-09-03T09:56:25.774Z,1.95
2022-09-03T09:59:10.037Z,1.88
2022-09-03T10:01:47.396Z,1.58
2022-09-03T10:04:25.290Z,1.83
2022-09-03T10:06:58.665Z,1.85
2022-09-03T10:09:31.406Z,2.00
2022-09-03T10:12:49.472Z,2.10
2022-09-03T10:15:55.857Z,1.92
2022-09-03T10:18:46.128Z,1.70
2022-09-03T10:21:20.421Z,2.03
2022-09-03T10:24:16.065Z,1.80
2022-09-03T10:26:46.905Z,1.83
2022-09-03T10:29:20.968Z,1.77
2022-09-03T10:32:09.654Z,1.40
2022-09-03T10:34:51.227Z,1.50
2022-09-03T10:37:39.517Z,1.45
2022-09-03T10:40:19.078Z,1.80
2022-09-03T10:43:16.544Z,2.05
2022-09-03T10:46:24.262Z,1.35
2022-09-03T10:49:03.120Z,1.50
2022-09-03T10:51:57.546Z,1.40
2022-09-03T10:54:25.286Z,1.48
2022-09-03T10:57:01.479Z,1.60
2022-09-03T10:59:34.368Z,1.40
2022-09-03T11:02:04.230Z,1.40
2022-09-03T11:04:46.278Z,1.25
2022-09-03T11:07:15.934Z,1.50
2022-09-03T11:10:06.067Z,1.30
2022-09-03T11:12:43.527Z,1.33
2022-09-03T11:15:19.064Z,1.30
2022-09-03T11:17:56.839Z,1.20
2022-09-03T11:20:25.909Z,1.73
2022-09-03T11:22:59.105Z,1.20
2022-09-03T11:25:33.301Z,1.40
2022-09-03T11:28:11.716Z,1.48
2022-09-03T11:30:59.908Z,1.38
2022-09-03T11:33:28.579Z,1.20
2022-09-03T11:36:01.728Z,1.20
2022-09-03T11:38:32.061Z,1.40
2022-09-03T11:41:14.898Z,1.50
2022-09-03T11:43:44.000Z,1.50
2022-09-03T11:46:23.639Z,1.25
2022-09-03T11:49:10.086Z,1.27
2022-09-03T11:51:41.879Z,1.30
2022-09-03T11:54:20.859Z,1.27
2022-09-03T11:56:49.793Z,1.33
2022-09-03T11:59:23.613Z,1.23
2022-09-03T12:02:20.008Z,1.30
2022-09-03T12:04:57.556Z,1.30
2022-09-03T12:07:39.148Z,1.27
2022-09-03T12:10:12.195Z,1.38
2022-09-03T12:13:08.865Z,1.40
2022-09-03T12:16:01.779Z,1.33
2022-09-03T12:18:33.733Z,1.05
2022-09-03T12:21:06.899Z,1.23
2022-09-03T12:23:45.735Z,1.17
2022-09-03T12:26:15.057Z,1.30
2022-09-03T12:28:44.532Z,1.20
2022-09-03T12:31:21.528Z,1.42
2022-09-03T12:33:54.118Z,1.40
2022-09-03T12:36:23.131Z,1.50
2022-09-03T12:39:10.833Z,1.33
2022-09-03T12:41:37.856Z,1.38
2022-09-03T12:44:05.432Z,1.40
2022-09-03T12:46:34.470Z,1.35
2022-09-03T12:52:11.884Z,1.23
2022-09-03T12:54:51.096Z,1.27
2022-09-03T12:57:22.471Z,1.35
2022-09-03T12:59:53.545Z,0.95
2022-09-03T13:02:29.343Z,1.42
2022-09-03T13:04:56.903Z,1.15
2022-09-03T13:07:33.506Z,1.20
2022-09-03T13:10:25.333Z,1.15
2022-09-03T13:12:53.541Z,1.02
2022-09-03T13:15:24.187Z,1.30
2022-09-03T13:18:20.896Z,1.08
2022-09-03T13:21:29.499Z,1.30
2022-09-03T13:24:20.127Z,1.30
2022-09-03T13:27:07.518Z,1.40
2022-09-03T13:29:40.327Z,1.02
2022-09-03T13:32:17.214Z,0.90
2022-09-03T13:35:10.864Z,0.70
2022-09-03T13:37:58.935Z,0.80
2022-09-03T13:40:29.402Z,1.10
2022-09-03T13:43:26.031Z,0.87
2022-09-03T13:46:24.609Z,0.70
2022-09-03T13:49:25.080Z,0.80
2022-09-03T13:52:00.182Z,0.70
2022-09-03T13:54:50.508Z,0.60
2022-09-03T13:57:24.574Z,0.67
2022-09-03T14:00:09.512Z,0.60
2022-09-03T14:02:54.123Z,0.90
2022-09-03T14:05:32.296Z,0.70
2022-09-03T14:08:14.237Z,0.50
2022-09-03T14:11:14.888Z,0.87
2022-09-03T14:14:11.784Z,0.60
2022-09-03T14:16:55.235Z,1.00
2022-09-03T14:19:40.967Z,0.90
2022-09-03T14:22:31.053Z,0.73
2022-09-03T14:25:09.102Z,1.20
2022-09-03T14:27:36.658Z,1.00
2022-09-03T14:30:18.202Z,0.97
2022-09-03T14:33:05.776Z,1.10
2022-09-03T14:35:51.022Z,1.00
2022-09-03T14:38:18.553Z,1.10
2022-09-03T14:41:07.230Z,1.00
2022-09-03T14:44:00.997Z,1.07
2022-09-03T14:46:33.152Z,1.30
2022-09-03T14:49:20.720Z,1.00
2022-09-03T14:52:07.003Z,1.03
2022-09-03T14:54:52.554Z,1.53
2022-09-03T14:57:30.932Z,1.10
2022-09-03T15:00:32.093Z,1.53
2022-09-03T15:03:10.685Z,1.60
2022-09-03T15:05:49.759Z,1.40
2022-09-03T15:08:34.892Z,1.07
2022-09-03T15:11:05.365Z,1.10
2022-09-03T15:13:45.110Z,1.30
2022-09-03T15:16:34.936Z,1.37
2022-09-03T15:19:18.275Z,1.30
2022-09-03T15:22:16.264Z,0.90
2022-09-03T15:25:04.774Z,1.20
2022-09-03T15:28:02.110Z,1.20
2022-09-03T15:30:50.418Z,0.90
2022-09-03T15:33:50.970Z,1.10
2022-09-03T15:36:28.559Z,1.33
2022-09-03T15:39:16.305Z,1.20
2022-09-03T15:42:04.461Z,1.37
2022-09-03T15:45:05.758Z,0.90
2022-09-03T15:47:46.537Z,1.10
2022-09-03T15:50:40.034Z,1.00
2022-09-03T15:53:25.545Z,1.17
2022-09-03T15:56:31.680Z,1.00
2022-09-03T15:59:39.753Z,1.27
2022-09-03T16:02:14.534Z,1.00
2022-09-03T16:05:20.882Z,1.20
2022-09-03T16:08:08.594Z,1.07
2022-09-03T16:11:06.773Z,1.27
2022-09-03T16:14:01.242Z,0.90
2022-09-03T16:17:00.137Z,1.00
2022-09-03T16:19:33.212Z,0.80
2022-09-03T16:22:20.252Z,1.10
2022-09-03T16:24:59.265Z,0.83
2022-09-03T16:27:50.448Z,0.90
2022-09-03T16:30:36.084Z,1.10
2022-09-03T16:33:27.851Z,0.87
2022-09-03T16:36:15.614Z,1.00
2022-09-03T16:39:08.333Z,1.20
2022-09-03T16:41:54.138Z,1.20
2022-09-03T16:44:32.266Z,1.00
2022-09-03T16:47:04.831Z,0.97
2022-09-03T16:50:09.402Z,1.20
2022-09-03T16:52:44.258Z,1.00
2022-09-03T16:55:23.864Z,1.00
2022-09-03T16:57:57.380Z,1.17
2022-09-03T17:00:35.591Z,0.73
2022-09-03T17:03:26.399Z,1.27
2022-09-03T17:06:32.668Z,1.37
2022-09-03T17:08:59.908Z,1.00
2022-09-03T17:11:48.528Z,1.00
2022-09-03T17:14:37.843Z,1.30
2022-09-03T17:17:10.655Z,1.20
2022-09-03T17:19:46.039Z,1.00
2022-09-03T17:22:39.791Z,1.10
2022-09-03T17:25:24.709Z,1.07
2022-09-03T17:28:11.107Z,1.10
2022-09-03T17:30:49.674Z,0.90
2022-09-03T17:33:45.043Z,1.20
2022-09-03T17:36:21.288Z,1.10
2022-09-03T17:39:10.732Z,1.20
2022-09-03T17:41:56.729Z,1.03
2022-09-03T17:44:50.277Z,0.87
2022-09-03T17:47:17.181Z,0.73
2022-09-03T17:49:52.160Z,0.77
2022-09-03T17:52:39.387Z,0.60
2022-09-03T17:55:22.204Z,0.90
2022-09-03T17:58:10.101Z,0.80
2022-09-03T18:01:00.849Z,0.70
2022-09-03T18:03:32.901Z,0.90
2022-09-03T18:06:06.085Z,0.80
2022-09-03T18:08:59.720Z,0.80
2022-09-03T18:11:48.284Z,0.80
2022-09-03T18:14:20.547Z,0.50
2022-09-03T18:16:50.195Z,0.70
2022-09-03T18:19:30.571Z,0.60
2022-09-03T18:22:19.674Z,0.93
2022-09-03T18:25:14.553Z,1.00
2022-09-03T18:28:15.764Z,1.30
2022-09-03T18:31:01.215Z,1.40
2022-09-03T18:33:46.926Z,1.30
2022-09-03T18:36:33.289Z,1.50
2022-09-03T18:39:33.872Z,1.70
2022-09-03T18:42:31.916Z,1.27
2022-09-03T18:45:23.969Z,1.20
2022-09-03T18:48:20.651Z,1.33
2022-09-03T18:51:26.552Z,1.20
2022-09-03T18:54:45.054Z,1.67
2022-09-03T18:58:10.209Z,1.80
2022-09-03T19:01:02.291Z,1.20
2022-09-03T19:04:11.094Z,1.53
2022-09-03T19:07:35.722Z,1.50
2022-09-03T19:10:33.324Z,1.30
2022-09-03T19:13:30.767Z,1.30
2022-09-03T19:16:43.676Z,1.27
2022-09-03T19:20:00.300Z,1.20
2022-09-03T19:22:53.480Z,1.27
2022-09-03T19:25:39.786Z,1.60
2022-09-03T19:28:33.398Z,1.60
2022-09-03T19:31:28.162Z,2.23
2022-09-03T19:34:35.675Z,1.60
2022-09-03T19:37:41.810Z,1.90
2022-09-03T19:40:55.106Z,2.00
2022-09-03T19:44:08.453Z,1.40
2022-09-03T19:47:21.614Z,1.20
2022-09-03T19:50:20.749Z,1.23
2022-09-03T19:53:11.919Z,1.07
2022-09-03T19:56:11.788Z,1.00
2022-09-03T19:59:04.496Z,1.10
2022-09-03T20:01:55.946Z,1.10
2022-09-03T20:05:07.060Z,1.20
2022-09-03T20:07:55.416Z,1.00
2022-09-03T20:10:24.310Z,1.00
2022-09-03T20:13:05.350Z,0.93
2022-09-03T20:15:51.096Z,1.13
2022-09-03T20:18:20.715Z,1.37
2022-09-03T20:21:08.638Z,1.10
2022-09-03T20:23:45.952Z,0.90
2022-09-03T20:26:29.001Z,1.00
2022-09-03T20:29:22.772Z,1.10
2022-09-03T20:32:13.683Z,0.80
2022-09-03T20:35:14.093Z,0.80
2022-09-03T20:38:19.363Z,1.10
2022-09-03T20:41:09.601Z,0.90
2022-09-03T20:44:08.352Z,1.00
2022-09-03T20:46:53.774Z,0.87
2022-09-03T20:49:37.946Z,0.93
2022-09-03T20:52:18.541Z,0.90
2022-09-03T20:55:07.037Z,1.00
2022-09-03T20:57:41.655Z,1.10
2022-09-03T21:00:13.980Z,1.10
2022-09-03T21:02:51.839Z,1.50
2022-09-03T21:05:21.957Z,1.37
2022-09-03T21:08:27.290Z,1.30
2022-09-03T21:11:03.930Z,1.30
2022-09-03T21:13:53.530Z,1.43
2022-09-03T21:16:38.444Z,1.60
2022-09-03T21:19:21.942Z,1.63
2022-09-03T21:22:13.631Z,1.60
2022-09-03T21:25:04.448Z,1.50
2022-09-03T21:27:45.320Z,1.63
2022-09-03T21:30:18.138Z,1.70
2022-09-03T21:32:56.813Z,1.23
2022-09-03T21:35:45.319Z,1.50
2022-09-03T21:38:26.817Z,1.10
2022-09-03T21:41:05.498Z,1.10
2022-09-03T21:43:54.946Z,1.17
2022-09-03T21:46:59.569Z,1.20
2022-09-03T21:49:33.390Z,1.20
2022-09-03T21:52:11.484Z,1.20
2022-09-03T21:54:39.041Z,0.97
2022-09-03T21:57:38.080Z,0.80
2022-09-03T22:00:19.480Z,0.70
2022-09-03T22:02:49.172Z,0.90
2022-09-03T22:05:17.497Z,0.80
2022-09-03T22:08:02.291Z,0.90
2022-09-03T22:10:54.292Z,0.70
2022-09-03T22:13:35.467Z,1.00
2022-09-03T22:16:13.505Z,0.70
2022-09-03T22:18:40.614Z,0.70
2022-09-03T22:21:16.548Z,1.00
2022-09-03T22:23:56.653Z,0.90
2022-09-03T22:26:37.171Z,0.80
2022-09-03T22:29:19.734Z,0.80
2022-09-03T22:32:01.615Z,0.70
2022-09-03T22:34:40.331Z,1.00
2022-09-03T22:37:19.660Z,0.80
2022-09-03T22:39:47.457Z,0.77
2022-09-03T22:42:28.786Z,0.80
2022-09-03T22:45:18.668Z,0.90
2022-09-03T22:47:51.559Z,0.73
2022-09-03T22:50:31.465Z,0.80
2022-09-03T22:53:39.741Z,0.90
2022-09-03T22:56:11.347Z,0.90
2022-09-03T22:59:02.642Z,0.63
2022-09-03T23:01:51.725Z,0.90
2022-09-03T23:04:24.436Z,0.77
2022-09-03T23:06:59.774Z,0.80
2022-09-03T23:09:33.876Z,0.90
2022-09-03T23:12:06.663Z,0.70
2022-09-03T23:14:56.483Z,0.83
2022-09-03T23:20:26.020Z,0.90
2022-09-03T23:22:59.884Z,0.80
2022-09-03T23:25:37.604Z,1.00
2022-09-03T23:28:10.253Z,0.80
2022-09-03T23:30:37.403Z,0.90
2022-09-03T23:33:04.417Z,1.03
2022-09-03T23:35:42.898Z,0.80
2022-09-03T23:39:17.717Z,0.80
2022-09-03T23:42:05.401Z,0.87
2022-09-03T23:44:56.795Z,1.10
2022-09-03T23:47:23.787Z,1.17
2022-09-03T23:50:01.888Z,1.30
2022-09-03T23:52:54.260Z,1.00
2022-09-03T23:55:45.677Z,0.97
2022-09-03T23:58:38.057Z,0.90
